Terminal Aerodrome Forecast
Issued by NWS

Home | Current Version | Previous Version | Text Only | Print | Product List | Glossary On
Versions: 1 2 3 4 5 6 7 8 9 10 11 12 13 14
465
FTUS45 KVEF 171720
TAFEED
TAF
KEED 171720Z 1718/1818 16007KT P6SM SKC
     FM172000 19009KT P6SM SKC
     FM180400 25007KT P6SM SKC
     FM181000 VRB04KT P6SM SKC=

USA.gov is the U.S. government's official web portal to all federal, state and local government web resources and services.